• Join FlightAware (Why Join?)
  • Login
  • US Flag 
11:19PM EDT


 

Airport Tracker/Info


-or-


 

Live Flight TrackerFlight Track Log ✈ JBU24 ✈ 13-Jul-2013 ✈ KLAX - KJFK

Flight Track Log - Related Links

Times and Time Zones

All times are in EDT time to prevent confusion due to time zone crossing. See the JBU24 flight status page for this flight to view local times or setup timezone preferences in your user account.

Time Position Orientation Groundspeed Altitude Reporting Facility
EDT Latitude Longitude Course Direction KTS MPH feet Rate Location/Type
10:12AM 33.9100 -118.4940 222° Southwest 234 269 2,400  Level FlightAware
10:12AM 33.8840 -118.5220 222° Southwest 264 304 3,200 2,100 Climbing FlightAware
10:13AM 33.8570 -118.5470 218° Southwest 275 316 4,400 2,700 Climbing FlightAware
10:13AM 33.8420 -118.5510 192° South 276 318 5,000 2,400 Climbing FlightAware
10:13AM 33.8080 -118.5470 174° South 283 326 6,000 2,280 Climbing FlightAware
10:14AM 33.7890 -118.5430 170° South 287 330 6,600 2,400 Climbing FlightAware
10:14AM 33.7490 -118.5330 168° South 293 337 7,800 2,580 Climbing FlightAware
10:15AM 33.7110 -118.5220 166° South 293 337 9,100 2,760 Climbing FlightAware
10:15AM 33.6980 -118.5100 142° Southeast 292 336 9,700 2,100 Climbing FlightAware
10:15AM 33.6870 -118.4900 123° Southeast 298 343 10,100 1,560 Climbing FlightAware
10:16AM 33.6840 -118.3910 92° East 336 387 11,600 1,380 Climbing FlightAware
10:17AM 33.7030 -118.3260 71° East 363 418 12,300 960 Climbing FlightAware
10:17AM 33.7300 -118.2340 71° East 399 459 12,900 1,020 Climbing FlightAware
10:18AM 33.7570 -118.1430 70° East 416 479 13,800 1,200 Climbing FlightAware
10:19AM 33.7830 -118.0670 68° East 429 494 14,500 1,380 Climbing FlightAware
10:19AM 33.8470 -117.9970 42° Northeast 442 509 15,600 1,380 Climbing FlightAware
10:20AM 33.9160 -117.9340 37° Northeast 453 521 16,500 1,200 Climbing FlightAware
10:21AM 33.9840 -117.8730 37° Northeast 461 531 17,300 1,260 Climbing FlightAware
10:22AM 34.0640 -117.8000 37° Northeast 469 540 18,300 1,260 Climbing FlightAware
10:22AM 34.1230 -117.7320 44° Northeast 469 540 19,100 960 Climbing FlightAware
10:23AM 34.1880 -117.6440 48° Northeast 482 555 19,700 960 Climbing FlightAware
10:24AM 34.2470 -117.5630 49° Northeast 485 558 20,500 1,200 Climbing FlightAware
10:24AM 34.3120 -117.4750 48° Northeast 486 559 21,400 960 Climbing FlightAware
10:25AM 34.3720 -117.3930 48° Northeast 490 564 21,900 720 Climbing FlightAware
10:26AM 34.4410 -117.2990 48° Northeast 495 570 22,500 660 Climbing FlightAware
10:26AM 34.5000 -117.2180 49° Northeast 502 578 22,900 540 Climbing FlightAware
10:27AM 34.5720 -117.1180 49° Northeast 508 585 23,300 540 Climbing FlightAware
10:28AM 34.6280 -117.0410 49° Northeast 512 589 23,700 600 Climbing FlightAware
10:28AM 34.7000 -116.9420 48° Northeast 515 593 24,200 540 Climbing FlightAware
10:29AM 34.7660 -116.8510 49° Northeast 518 596 24,500 300 Climbing FlightAware
10:30AM 34.8550 -116.7290 48° Northeast 520 598 24,800 540 Climbing FlightAware
10:31AM 34.9340 -116.6170 49° Northeast 521 600 25,500 780 Climbing FlightAware
10:32AM 34.9980 -116.5320 47° Northeast 523 602 26,000 720 Climbing FlightAware
10:32AM 35.0780 -116.4330 45° Northeast 521 600 26,600 720 Climbing FlightAware
10:33AM 35.1330 -116.3650 45° Northeast 521 600 27,000 720 Climbing FlightAware
10:34AM 35.2060 -116.2740 46° Northeast 519 597 27,600 660 Climbing FlightAware
10:34AM 35.2780 -116.1840 46° Northeast 520 598 28,000 720 Climbing FlightAware
10:35AM 35.3320 -116.1150 46° Northeast 519 597 28,500 840 Climbing FlightAware
10:36AM 35.4070 -116.0210 46° Northeast 515 593 29,100 840 Climbing FlightAware
10:36AM 35.4750 -115.9340 46° Northeast 514 592 29,700 780 Climbing FlightAware
10:37AM 35.5400 -115.8520 46° Northeast 514 592 30,200 660 Climbing FlightAware
10:38AM 35.6110 -115.7610 46° Northeast 515 593 30,700 600 Climbing FlightAware
10:38AM 35.6780 -115.6760 46° Northeast 516 594 31,100 720 Climbing FlightAware
10:39AM 35.7510 -115.5830 46° Northeast 512 589 31,700 900 Climbing FlightAware
10:40AM 35.8100 -115.5070 46° Northeast 511 588 32,300 720 Climbing FlightAware
10:40AM 35.8760 -115.4220 46° Northeast 512 589 32,700 540 Climbing FlightAware
10:41AM 35.9480 -115.3300 46° Northeast 514 592 33,100 600 Climbing FlightAware
10:42AM 36.0050 -115.2560 46° Northeast 515 593 33,500 540 Climbing FlightAware
10:42AM 36.0800 -115.1580 47° Northeast 517 595 33,900 540 Climbing FlightAware
10:43AM 36.1490 -115.0710 46° Northeast 518 596 34,300 540 Climbing FlightAware
10:44AM 36.2220 -114.9790 45° Northeast 518 596 34,700 480 Climbing FlightAware
10:45AM 36.2880 -114.8950 46° Northeast 519 597 35,000 240 Climbing FlightAware
10:45AM 36.3480 -114.8190 46° Northeast 519 597 35,000  Level FlightAware
10:46AM 36.4230 -114.7220 46° Northeast 519 597 35,000  Level FlightAware
10:47AM 36.4860 -114.6390 47° Northeast 521 600 35,000  Level FlightAware
10:47AM 36.5490 -114.5570 46° Northeast 519 597 35,000  Level FlightAware
10:48AM 36.6230 -114.4600 46° Northeast 518 596 35,000  Level FlightAware
10:48AM 36.6820 -114.3820 47° Northeast 519 597 35,000  Level FlightAware
10:49AM 36.7520 -114.2820 49° Northeast 516 594 35,000  Level FlightAware
10:50AM 36.8060 -114.1800 57° Northeast 513 590 35,000  Level FlightAware
10:51AM 36.8580 -114.0740 58° Northeast 514 592 35,000  Level FlightAware
10:51AM 36.9060 -113.9760 58° Northeast 514 592 35,000  Level FlightAware
10:52AM 36.9540 -113.8760 59° Northeast 513 590 35,000  Level FlightAware
10:53AM 37.0090 -113.7620 59° Northeast 514 592 35,000  Level FlightAware
10:53AM 37.0520 -113.6710 59° Northeast 515 593 35,000  Level FlightAware
10:54AM 37.1000 -113.5700 59° Northeast 516 594 35,000  Level FlightAware
10:55AM 37.1500 -113.4650 59° Northeast 515 593 35,000  Level FlightAware
10:55AM 37.1990 -113.3610 59° Northeast 514 592 35,000  Level FlightAware
10:56AM 37.2490 -113.2560 59° Northeast 514 592 35,000  Level FlightAware
10:57AM 37.3010 -113.1420 60° Northeast 510 587 35,000  Level FlightAware
10:57AM 37.3520 -113.0350 59° Northeast 509 586 35,000  Level FlightAware
10:58AM 37.4020 -112.9270 60° Northeast 509 586 35,000  Level FlightAware
10:59AM 37.4680 -112.7850 60° Northeast 510 587 35,000  Level FlightAware
11:00AM 37.5240 -112.6660 59° Northeast 511 588 35,000  Level FlightAware
11:01AM 37.5710 -112.5660 59° Northeast 511 588 35,000  Level FlightAware
11:02AM 37.6330 -112.4350 59° Northeast 511 588 35,000  Level FlightAware
11:02AM 37.6710 -112.3570 58° Northeast 511 588 35,000  Level FlightAware
11:03AM 37.7200 -112.2530 59° Northeast 511 588 35,000  Level FlightAware
11:04AM 37.8130 -112.0360 61° Northeast 503 579 35,000  Level FlightAware
11:05AM 37.8620 -111.9290 60° Northeast 504 580 35,000  Level FlightAware
11:05AM 37.9070 -111.8310 60° Northeast 504 580 35,000  Level FlightAware
11:06AM 37.9590 -111.7190 59° Northeast 502 578 35,000  Level FlightAware
11:07AM 38.0130 -111.6000 60° Northeast 500 575 35,000  Level FlightAware
11:07AM 38.0560 -111.5050 60° Northeast 501 577 35,000  Level FlightAware
11:08AM 38.1070 -111.3920 60° Northeast 502 578 35,000  Level FlightAware
11:09AM 38.1500 -111.2970 60° Northeast 502 578 35,000  Level FlightAware
11:10AM 38.2030 -111.1780 60° Northeast 501 577 35,000  Level FlightAware
11:10AM 38.2530 -111.0670 60° Northeast 499 574 35,000  Level FlightAware
11:11AM 38.3130 -110.9330 60° Northeast 498 573 35,000  Level FlightAware
11:12AM 38.3650 -110.8170 60° Northeast 494 568 35,000  Level FlightAware
11:13AM 38.4050 -110.7230 61° Northeast 494 568 35,000  Level FlightAware
11:13AM 38.4360 -110.6320 66° East 492 566 35,000  Level FlightAware
11:14AM 38.4730 -110.5030 70° East 491 565 35,000  Level FlightAware
11:15AM 38.5030 -110.3990 70° East 490 564 35,000  Level FlightAware
11:15AM 38.5350 -110.2880 70° East 490 564 35,000  Level FlightAware
11:16AM 38.5690 -110.1690 70° East 491 565 35,000  Level FlightAware
11:17AM 38.6030 -110.0460 70° East 490 564 35,000  Level FlightAware
11:17AM 38.6340 -109.9370 70° East 491 565 35,000  Level FlightAware
11:18AM 38.6670 -109.8200 70° East 493 567 35,000  Level FlightAware
11:19AM 38.6980 -109.7070 71° East 495 570 35,000  Level FlightAware
11:19AM 38.7280 -109.5990 70° East 497 572 35,000 60 Level FlightAware
11:20AM 38.7610 -109.4810 70° East 496 571 35,100  Climbing FlightAware
11:21AM 38.7950 -109.3580 70° East 494 568 35,000 -120 Descending FlightAware
11:21AM 38.8240 -109.2530 70° East 494 568 35,000  Level FlightAware
11:22AM 38.8500 -109.1560 71° East 494 568 35,000  Level FlightAware
11:23AM 38.8840 -109.0320 71° East 494 568 35,000  Level FlightAware
11:23AM 38.9130 -108.9230 71° East 495 570 35,000  Level FlightAware
11:24AM 38.9450 -108.8060 71° East 497 572 35,000 60 Level FlightAware
11:25AM 38.9780 -108.6830 71° East 493 567 35,100  Climbing FlightAware
11:26AM 39.0100 -108.5630 71° East 490 564 35,000 -120 Descending FlightAware
11:26AM 39.0420 -108.4420 71° East 487 560 35,000  Level FlightAware
11:27AM 39.0700 -108.3370 71° East 487 560 35,000  Level FlightAware
11:28AM 39.1010 -108.2170 72° East 488 562 35,000  Level FlightAware
11:28AM 39.1300 -108.1060 71° East 489 563 35,000  Level FlightAware
11:29AM 39.1620 -107.9850 71° East 489 563 35,000  Level FlightAware
11:30AM 39.1880 -107.8860 71° East 489 563 35,000  Level FlightAware
11:31AM 39.2210 -107.7580 72° East 487 560 35,000  Level FlightAware
11:31AM 39.2460 -107.6600 72° East 486 559 35,000  Level FlightAware
11:32AM 39.2770 -107.5390 72° East 485 558 35,000  Level FlightAware
11:32AM 39.3020 -107.4390 72° East 484 557 35,000  Level FlightAware
11:33AM 39.3121 -107.4000 71° East 484 557 35,000  Level FlightAware ADS-B
11:33AM 39.3331 -107.3170 72° East 484 557 35,000  Level FlightAware ADS-B
11:34AM 39.3543 -107.2330 72° East 485 558 35,000  Level FlightAware ADS-B
11:34AM 39.3756 -107.1490 72° East 485 558 35,000  Level FlightAware ADS-B
11:35AM 39.3963 -107.0660 72° East 484 557 35,000  Level FlightAware ADS-B
11:35AM 39.4173 -106.9830 72° East 483 556 35,000  Level FlightAware ADS-B
11:36AM 39.4382 -106.8980 72° East 484 557 35,000  Level FlightAware ADS-B
11:36AM 39.4548 -106.8270 73° East 483 556 35,000  Level FlightAware ADS-B
11:37AM 39.4740 -106.7320 75° East 485 558 35,000  Level FlightAware ADS-B
11:37AM 39.4923 -106.6420 75° East 484 557 35,000  Level FlightAware ADS-B
11:38AM 39.5098 -106.5580 75° East 483 556 35,000  Level FlightAware ADS-B
11:38AM 39.5271 -106.4750 75° East 483 556 35,000  Level FlightAware ADS-B
11:39AM 39.5447 -106.3900 75° East 482 555 35,000  Level FlightAware ADS-B
11:39AM 39.5621 -106.3050 75° East 482 555 35,000  Level FlightAware ADS-B
11:40AM 39.5793 -106.2220 75° East 480 552 35,000  Level FlightAware ADS-B
11:41AM 39.6027 -106.1070 75° East 480 552 35,000  Level FlightAware ADS-B
11:41AM 39.6209 -106.0180 75° East 479 551 35,000  Level FlightAware ADS-B
11:42AM 39.6378 -105.9350 75° East 479 551 35,000  Level FlightAware ADS-B
11:42AM 39.6546 -105.8510 75° East 478 550 35,000  Level FlightAware ADS-B
11:43AM 39.6715 -105.7670 75° East 480 552 35,000  Level FlightAware ADS-B
11:43AM 39.6885 -105.6820 75° East 481 554 35,000  Level FlightAware ADS-B
11:44AM 39.7047 -105.6010 75° East 481 554 35,000  Level FlightAware ADS-B
11:44AM 39.7223 -105.5130 75° East 482 555 35,000  Level FlightAware ADS-B
11:45AM 39.7389 -105.4280 76° East 483 556 35,000  Level FlightAware ADS-B
11:45AM 39.7555 -105.3440 76° East 484 557 35,000  Level FlightAware ADS-B
11:46AM 39.7715 -105.2620 76° East 485 558 35,000  Level FlightAware ADS-B
11:46AM 39.7889 -105.1730 76° East 485 558 35,000  Level FlightAware ADS-B
11:47AM 39.8056 -105.0880 76° East 486 559 35,000  Level FlightAware ADS-B
11:47AM 39.8221 -105.0020 76° East 486 559 35,000  Level FlightAware ADS-B
11:48AM 39.8389 -104.9160 76° East 485 558 35,000  Level FlightAware ADS-B
11:48AM 39.8551 -104.8310 76° East 483 556 35,000  Level FlightAware ADS-B
11:49AM 39.8717 -104.7440 76° East 482 555 35,000  Level FlightAware ADS-B
11:49AM 39.8879 -104.6580 76° East 480 552 35,000  Level FlightAware ADS-B
11:50AM 39.9025 -104.5800 76° East 478 550 35,000  Level FlightAware ADS-B
11:50AM 39.9164 -104.4960 78° East 477 549 35,000  Level FlightAware ADS-B
11:51AM 39.9305 -104.4090 78° East 476 548 35,000  Level FlightAware ADS-B
11:51AM 39.9455 -104.3170 78° East 477 549 35,000  Level FlightAware ADS-B
11:52AM 39.9596 -104.2320 78° East 478 550 35,000  Level FlightAware ADS-B
11:52AM 39.9739 -104.1460 78° East 479 551 35,000  Level FlightAware ADS-B
11:53AM 39.9879 -104.0600 78° East 480 552 35,000  Level FlightAware ADS-B
11:53AM 40.0020 -103.9730 78° East 481 554 35,000  Level FlightAware ADS-B
11:54AM 40.0153 -103.8920 78° East 482 555 35,000  Level FlightAware ADS-B
11:54AM 40.0296 -103.8030 78° East 483 556 35,000  Level FlightAware ADS-B
11:55AM 40.0436 -103.7160 78° East 483 556 35,000  Level FlightAware ADS-B
11:55AM 40.0572 -103.6310 78° East 482 555 35,000  Level FlightAware ADS-B
11:56AM 40.0711 -103.5430 78° East 481 554 35,000  Level FlightAware ADS-B
11:56AM 40.0850 -103.4550 78° East 480 552 35,000  Level FlightAware ADS-B
11:57AM 40.0984 -103.3690 78° East 479 551 35,000  Level FlightAware ADS-B
11:57AM 40.1119 -103.2840 78° East 479 551 35,000  Level FlightAware ADS-B
11:58AM 40.1251 -103.1990 78° East 477 549 35,000  Level FlightAware ADS-B
11:58AM 40.1392 -103.1080 79° East 476 548 35,000  Level FlightAware ADS-B
11:59AM 40.1523 -103.0220 79° East 476 548 35,000  Level FlightAware ADS-B
11:59AM 40.1655 -102.9360 79° East 475 547 35,000  Level FlightAware ADS-B
12:00PM 40.1786 -102.8490 79° East 475 547 35,000  Level FlightAware ADS-B
12:00PM 40.1918 -102.7620 79° East 475 547 35,000  Level FlightAware ADS-B
12:01PM 40.2046 -102.6770 79° East 475 547 35,000  Level FlightAware ADS-B
12:01PM 40.2173 -102.5920 79° East 475 547 35,000  Level FlightAware ADS-B
12:02PM 40.2300 -102.5070 79° East 475 547 35,000  Level FlightAware ADS-B
12:02PM 40.2426 -102.4210 79° East 474 545 35,000  Level FlightAware ADS-B
12:03PM 40.2552 -102.3370 79° East 474 545 35,000  Level FlightAware ADS-B
12:03PM 40.2675 -102.2530 79° East 474 545 35,000  Level FlightAware ADS-B
12:04PM 40.2800 -102.1670 79° East 475 547 35,000  Level FlightAware ADS-B
12:04PM 40.2925 -102.0810 79° East 476 548 35,000  Level FlightAware ADS-B
12:05PM 40.3048 -101.9950 79° East 476 548 35,000  Level FlightAware ADS-B
12:05PM 40.3175 -101.9070 79° East 476 548 35,000  Level FlightAware ADS-B
12:06PM 40.3296 -101.8220 79° East 474 545 35,000  Level FlightAware ADS-B
12:06PM 40.3418 -101.7360 79° East 473 544 35,000  Level FlightAware ADS-B
12:07PM 40.3545 -101.6470 79° East 473 544 35,000  Level FlightAware ADS-B
12:07PM 40.3670 -101.5580 80° East 471 542 35,000  Level FlightAware ADS-B
12:08PM 40.3791 -101.4710 80° East 471 542 35,000  Level FlightAware ADS-B
12:08PM 40.3909 -101.3860 80° East 470 541 35,000  Level FlightAware ADS-B
12:09PM 40.4024 -101.3020 80° East 469 540 35,000  Level FlightAware ADS-B
12:09PM 40.4139 -101.2170 80° East 469 540 35,000  Level FlightAware ADS-B
12:10PM 40.4256 -101.1320 80° East 468 539 35,000  Level FlightAware ADS-B
12:10PM 40.4371 -101.0480 80° East 469 540 35,000  Level FlightAware ADS-B
12:11PM 40.4540 -100.9210 80° East 469 540 35,000  Level FlightAware ADS-B
12:12PM 40.4625 -100.8469 80° East 468 539 35,000  Level Denver Center
12:13PM 40.4906 -100.6325 80° East 472 543 35,000  Level Denver Center
12:14PM 40.5114 -100.4728 80° East 469 540 35,000  Level Denver Center
12:15PM 40.5350 -100.2864 80° East 468 539 35,000  Level Denver Center
12:16PM 40.5550 -100.1267 81° East 465 535 35,000  Level Denver Center
12:17PM 40.5775 -99.9394 81° East 466 536 35,000  Level Denver Center
12:18PM 40.5992 -99.7675 81° East 465 535 35,000  Level Denver Center
12:19PM 40.6194 -99.5983 81° East 468 539 35,000  Level Denver Center
12:20PM 40.6386 -99.4319 81° East 462 532 35,000  Level Denver Center
12:22PM 40.6581 -99.2642 81° East 465 535 35,000  Level Denver Center
12:23PM 40.6858 -99.0300 81° East 467 537 35,000  Level Minneapolis Center
12:24PM 40.7044 -98.8619 82° East 468 539 35,000  Level Minneapolis Center
12:25PM 40.7231 -98.6933 82° East 469 540 35,000  Level Minneapolis Center
12:26PM 40.7406 -98.5236 82° East 471 542 35,000  Level Minneapolis Center
12:32PM 40.7389 -97.4527 82° East 460 529 35,000  Level FlightAware ADS-B
12:32PM 40.7365 -97.3636 92° East 462 532 35,000  Level FlightAware ADS-B
12:33PM 40.7341 -97.2743 92° East 463 533 35,000  Level FlightAware ADS-B
12:33PM 40.7317 -97.1889 92° East 464 534 35,000  Level FlightAware ADS-B
12:34PM 40.7293 -97.1028 92° East 464 534 35,000  Level FlightAware ADS-B
12:34PM 40.7270 -97.0207 92° East 464 534 35,000  Level FlightAware ADS-B
12:35PM 40.7243 -96.9331 92° East 463 533 35,000  Level FlightAware ADS-B
12:35PM 40.7218 -96.8467 92° East 463 533 35,000  Level FlightAware ADS-B
12:36PM 40.7188 -96.7501 92° East 462 532 35,000  Level FlightAware ADS-B
12:36PM 40.7162 -96.6652 92° East 461 531 35,000  Level FlightAware ADS-B
12:37PM 40.7133 -96.5792 93° East 461 531 35,000  Level FlightAware ADS-B
12:37PM 40.7104 -96.4950 93° East 460 529 35,000  Level FlightAware ADS-B
12:38PM 40.7072 -96.4039 93° East 460 529 35,000  Level FlightAware ADS-B
12:39PM 40.7042 -96.3187 93° East 459 528 35,000  Level FlightAware ADS-B
12:39PM 40.7011 -96.2349 93° East 459 528 35,000  Level FlightAware ADS-B
12:40PM 40.6980 -96.1506 93° East 459 528 35,000  Level FlightAware ADS-B
12:40PM 40.6950 -96.0676 93° East 458 527 35,000  Level FlightAware ADS-B
12:41PM 40.6917 -95.9830 93° East 457 526 35,000  Level FlightAware ADS-B
12:41PM 40.6886 -95.9025 93° East 457 526 35,000  Level FlightAware ADS-B
12:42PM 40.6852 -95.8153 93° East 457 526 35,000  Level FlightAware ADS-B
12:42PM 40.6818 -95.7314 93° East 457 526 35,000  Level FlightAware ADS-B
12:43PM 40.6783 -95.6451 93° East 457 526 35,000  Level FlightAware ADS-B
12:43PM 40.6750 -95.5623 93° East 458 527 35,000  Level FlightAware ADS-B
12:44PM 40.6708 -95.4669 93° East 459 528 35,000  Level FlightAware ADS-B
12:44PM 40.6672 -95.3826 93° East 459 528 35,000  Level FlightAware ADS-B
12:45PM 40.6627 -95.2829 93° East 458 527 35,000  Level FlightAware ADS-B
12:45PM 40.6589 -95.1972 93° East 458 527 35,000  Level FlightAware ADS-B
12:46PM 40.6550 -95.1136 93° East 459 528 35,000  Level FlightAware ADS-B
12:46PM 40.6512 -95.0302 93° East 458 527 35,000  Level FlightAware ADS-B
12:47PM 40.6471 -94.9428 94° East 456 525 35,000  Level FlightAware ADS-B
12:47PM 40.6422 -94.8394 94° East 452 520 35,000  Level FlightAware ADS-B
12:48PM 40.6373 -94.7693 95° East 452 520 35,000  Level FlightAware ADS-B
12:48PM 40.6261 -94.6886 100° East 453 521 35,000  Level FlightAware ADS-B
12:49PM 40.6129 -94.5912 100° East 451 519 35,000  Level FlightAware ADS-B
12:50PM 40.5954 -94.4609 100° East 452 520 35,000  Level FlightAware ADS-B
12:51PM 40.5723 -94.2918 100° East 456 525 35,000 60 Level FlightAware ADS-B
12:51PM 40.5610 -94.2096 100° East 453 521 35,100  Climbing FlightAware ADS-B
12:52PM 40.5495 -94.1270 100° East 453 521 35,000 -120 Descending FlightAware ADS-B
12:53PM 40.5329 -94.0072 100° East 453 521 35,000  Level FlightAware ADS-B
12:54PM 40.5104 -93.8473 100° East 453 521 35,000  Level FlightAware ADS-B
12:54PM 40.4988 -93.7656 101° East 449 517 35,000  Level FlightAware ADS-B
12:55PM 40.4880 -93.6880 100° East 445 512 35,000  Level FlightAware
12:55PM 40.4756 -93.6030 101° East 446 513 35,000  Level FlightAware ADS-B
12:56PM 40.4639 -93.5229 101° East 445 512 35,000  Level FlightAware ADS-B
12:56PM 40.4522 -93.4417 101° East 444 511 35,000  Level FlightAware ADS-B
12:57PM 40.4406 -93.3622 101° East 445 512 35,000  Level FlightAware ADS-B
12:57PM 40.4289 -93.2822 101° East 445 512 35,000  Level FlightAware ADS-B
12:58PM 40.4173 -93.2032 101° East 444 511 35,000  Level FlightAware ADS-B
12:58PM 40.4055 -93.1236 101° East 445 512 35,000  Level FlightAware ADS-B
12:59PM 40.3932 -93.0402 101° East 447 514 35,000  Level FlightAware ADS-B
12:59PM 40.3809 -92.9586 101° East 449 517 35,000  Level FlightAware ADS-B
01:00PM 40.3686 -92.8774 101° East 449 517 35,000  Level FlightAware ADS-B
01:00PM 40.3563 -92.7960 101° East 451 519 35,000  Level FlightAware ADS-B
01:01PM 40.3410 -92.6920 101° East 450 518 35,000  Level FlightAware
01:01PM 40.3314 -92.6321 102° East 451 519 35,000  Level FlightAware ADS-B
01:02PM 40.3060 -92.4630 101° East 452 520 35,000  Level FlightAware
01:03PM 40.2900 -92.3650 102° East 455 524 35,000  Level FlightAware
01:03PM 40.2740 -92.2620 101° East 454 522 35,000 60 Level FlightAware
01:04PM 40.2560 -92.1410 101° East 452 520 35,100  Climbing FlightAware
01:05PM 40.2390 -92.0350 102° East 452 520 35,000  Descending FlightAware
01:06PM 40.2180 -91.9020 102° East 447 514 35,100  Climbing FlightAware
01:07PM 40.1950 -91.7610 102° East 444 511 35,000 -120 Descending FlightAware
01:07PM 40.1770 -91.6510 102° East 445 512 35,000  Level FlightAware
01:08PM 40.1610 -91.5490 102° East 447 514 35,000  Level FlightAware
01:09PM 40.1440 -91.4450 102° East 451 519 35,000  Level FlightAware
01:09PM 40.1250 -91.3320 102° East 453 521 35,000 60 Level FlightAware
01:10PM 40.1100 -91.2400 102° East 451 519 35,100 60 Climbing FlightAware
01:10PM 40.0970 -91.1650 103° East 449 517 35,100  Level FlightAware
01:11PM 40.0820 -91.0690 102° East 447 514 35,100 -120 Level FlightAware
01:12PM 40.0620 -90.9530 103° East 443 510 35,000 -120 Descending FlightAware
01:13PM 40.0360 -90.7980 102° East 441 507 35,000  Level FlightAware
01:13PM 40.0170 -90.6890 103° East 439 505 35,000  Level FlightAware
01:14PM 39.9980 -90.5760 102° East 438 504 35,000  Level FlightAware
01:15PM 39.9830 -90.4900 103° East 436 502 35,000  Level FlightAware
01:15PM 39.9650 -90.3840 102° East 434 499 35,000  Level FlightAware
01:16PM 39.9450 -90.2700 103° East 433 498 35,000  Level FlightAware
01:17PM 39.9290 -90.1810 103° East 433 498 35,000  Level FlightAware
01:17PM 39.9110 -90.0770 103° East 433 498 35,000  Level FlightAware
01:18PM 39.8920 -89.9710 103° East 435 501 35,000  Level FlightAware
01:19PM 39.8730 -89.8670 103° East 438 504 35,000  Level FlightAware
01:19PM 39.8550 -89.7610 102° East 441 507 35,000  Level FlightAware
01:20PM 39.8410 -89.6460 99° East 430 495 35,000 60 Level FlightAware
01:21PM 39.8410 -89.5050 90° East 424 488 35,100 60 Climbing FlightAware
01:22PM 39.8410 -89.4130 90° East 422 486 35,100 -120 Level FlightAware
01:22PM 39.8410 -89.3020 90° East 421 484 35,000 -120 Descending FlightAware
01:23PM 39.8420 -89.2060 89° East 420 483 35,000  Level FlightAware
01:24PM 39.8420 -89.1210 90° East 420 483 35,000  Level FlightAware
01:24PM 39.8420 -89.0170 90° East 419 482 35,000  Level FlightAware
01:25PM 39.8420 -88.9130 90° East 418 481 35,000  Level FlightAware
01:26PM 39.8420 -88.8160 90° East 418 481 35,000  Level FlightAware
01:26PM 39.8420 -88.7000 90° East 419 482 35,000  Level FlightAware
01:27PM 39.8420 -88.6060 90° East 420 483 35,000  Level FlightAware
01:28PM 39.8410 -88.4840 91° East 421 484 35,000  Level FlightAware
01:28PM 39.8410 -88.3920 90° East 421 484 35,000 60 Level FlightAware
01:29PM 39.8410 -88.2930 90° East 418 481 35,100  Climbing FlightAware
01:30PM 39.8400 -88.1770 91° East 418 481 35,000 -120 Descending FlightAware
01:31PM 39.8390 -88.0860 91° East 416 479 35,000  Level FlightAware
01:31PM 39.8380 -87.9650 91° East 414 476 35,000  Level FlightAware
01:32PM 39.8380 -87.8710 90° East 411 473 35,000  Level FlightAware
01:33PM 39.8370 -87.7660 91° East 406 467 35,000  Level FlightAware
01:33PM 39.8360 -87.6590 91° East 400 460 35,000  Level FlightAware
01:34PM 39.8350 -87.5670 91° East 397 457 35,000  Level FlightAware
01:35PM 39.8330 -87.4680 91° East 394 453 35,000  Level FlightAware
01:35PM 39.8320 -87.3640 91° East 390 449 35,000  Level FlightAware
01:36PM 39.8310 -87.2730 91° East 388 447 35,000  Level FlightAware
01:37PM 39.8290 -87.1710 91° East 389 448 35,000  Level FlightAware
01:37PM 39.8280 -87.0830 91° East 393 452 35,000  Level FlightAware
01:38PM 39.8270 -86.9960 91° East 397 457 35,000  Level FlightAware
01:39PM 39.8250 -86.8830 91° East 401 461 35,000 60 Level FlightAware
01:39PM 39.8230 -86.7960 92° East 404 465 35,100  Climbing FlightAware
01:40PM 39.8210 -86.6790 91° East 406 467 35,000 -120 Descending FlightAware
01:41PM 39.8190 -86.5800 91° East 410 472 35,000  Level FlightAware
01:42PM 39.8190 -86.4590 90° East 413 475 35,000 60 Level FlightAware
01:43PM 39.8320 -86.3500 81° East 417 480 35,100 60 Climbing FlightAware
01:43PM 39.8490 -86.2800 72° East 417 480 35,100 -120 Level FlightAware
01:44PM 39.8850 -86.1770 65° Northeast 419 482 35,000 -120 Descending FlightAware
01:44PM 39.9180 -86.0880 64° Northeast 408 470 35,000  Level FlightAware
01:45PM 39.9490 -86.0040 64° Northeast 401 461 35,000  Level FlightAware
01:46PM 39.9870 -85.8990 65° Northeast 407 468 35,000  Level FlightAware
01:47PM 40.0200 -85.8100 64° Northeast 406 467 35,000  Level FlightAware
01:47PM 40.0530 -85.7180 65° Northeast 406 467 35,000  Level FlightAware
01:48PM 40.0870 -85.6240 65° Northeast 405 466 35,000  Level FlightAware
01:49PM 40.1230 -85.5240 65° Northeast 405 466 35,000  Level FlightAware
01:49PM 40.1540 -85.4390 64° Northeast 407 468 35,000  Level FlightAware
01:50PM 40.1840 -85.3570 64° Northeast 407 468 35,000  Level FlightAware
01:51PM 40.2170 -85.2650 65° Northeast 407 468 35,000  Level FlightAware
01:51PM 40.2500 -85.1710 65° Northeast 405 466 35,000  Level FlightAware
01:52PM 40.2800 -85.0870 65° Northeast 406 467 35,000  Level FlightAware
01:53PM 40.3100 -85.0020 65° Northeast 406 467 35,000  Level FlightAware
01:53PM 40.3470 -84.8990 65° Northeast 405 466 35,000  Level FlightAware
01:54PM 40.3780 -84.8110 65° Northeast 405 466 35,000  Level FlightAware
01:55PM 40.4050 -84.7330 66° East 407 468 35,000  Level FlightAware
01:55PM 40.4310 -84.6610 65° Northeast 410 472 35,000  Level FlightAware
01:56PM 40.4660 -84.5600 65° Northeast 414 476 35,000 60 Level FlightAware
01:57PM 40.4980 -84.4680 65° Northeast 417 480 35,100  Climbing FlightAware
01:57PM 40.5230 -84.3940 66° East 418 481 35,000 -120 Descending FlightAware
01:58PM 40.5580 -84.2960 65° Northeast 420 483 35,000  Level FlightAware
01:59PM 40.5920 -84.1960 66° East 424 488 35,000  Level FlightAware
01:59PM 40.6240 -84.1020 66° East 428 493 35,000  Level FlightAware
02:00PM 40.6660 -83.9810 65° Northeast 433 498 35,000  Level FlightAware
02:01PM 40.7110 -83.8490 66° East 435 501 35,000  Level FlightAware
02:02PM 40.7470 -83.7430 66° East 437 503 35,000  Level FlightAware
02:02PM 40.7810 -83.6430 66° East 438 504 35,000  Level FlightAware
02:03PM 40.8140 -83.5460 66° East 440 506 35,000  Level FlightAware
02:04PM 40.8470 -83.4460 66° East 442 509 35,000  Level FlightAware
02:04PM 40.8830 -83.3380 66° East 445 512 35,000  Level FlightAware
02:05PM 40.9210 -83.2240 66° East 445 512 35,000  Level FlightAware
02:06PM 40.9540 -83.1270 66° East 447 514 35,000  Level FlightAware
02:06PM 40.9860 -83.0290 67° East 449 517 35,000  Level FlightAware
02:07PM 41.0210 -82.9160 68° East 446 513 35,000  Level FlightAware
02:08PM 41.0430 -82.8000 76° East 442 509 35,000  Level FlightAware
02:09PM 41.0640 -82.6910 76° East 441 507 35,000  Level FlightAware
02:09PM 41.0850 -82.5760 76° East 441 507 35,000  Level FlightAware
02:10PM 41.1010 -82.4920 76° East 441 507 35,000  Level FlightAware
02:11PM 41.1410 -82.2770 76° East 441 507 35,000  Level FlightAware
02:12PM 41.1600 -82.1770 76° East 442 509 35,000  Level FlightAware
02:13PM 41.1810 -82.0600 77° East 442 509 35,000  Level FlightAware
02:13PM 41.2000 -81.9540 77° East 444 511 35,000  Level FlightAware
02:14PM 41.2170 -81.8600 76° East 444 511 35,000  Level FlightAware
02:15PM 41.2380 -81.7450 76° East 444 511 35,000  Level FlightAware
02:15PM 41.2590 -81.6310 76° East 445 512 35,000  Level FlightAware
02:16PM 41.2750 -81.5410 77° East 444 511 35,000  Level FlightAware
02:17PM 41.2940 -81.4320 77° East 444 511 35,000  Level FlightAware
02:17PM 41.3140 -81.3180 77° East 445 512 35,000  Level FlightAware
02:18PM 41.3330 -81.2070 77° East 446 513 35,000  Level FlightAware
02:19PM 41.3540 -81.0900 77° East 447 514 35,000  Level FlightAware
02:19PM 41.3710 -80.9920 77° East 448 516 35,000  Level FlightAware
02:20PM 41.3920 -80.8660 77° East 448 516 35,000  Level FlightAware
02:21PM 41.4070 -80.7790 77° East 447 514 35,000  Level FlightAware
02:21PM 41.4250 -80.6710 77° East 446 513 35,000  Level FlightAware
02:22PM 41.4440 -80.5610 77° East 446 513 35,000  Level FlightAware
02:23PM 41.4600 -80.4640 78° East 447 514 35,000  Level FlightAware
02:23PM 41.4800 -80.3470 77° East 450 518 35,000  Level FlightAware
02:24PM 41.4990 -80.2300 78° East 471 542 35,000  Level FlightAware
02:25PM 41.5160 -80.1240 78° East 478 550 35,000  Level FlightAware
02:25PM 41.5360 -80.0040 77° East 477 549 35,000  Level FlightAware
02:26PM 41.5560 -79.8810 78° East 474 545 35,000  Level FlightAware
02:27PM 41.5740 -79.7710 78° East 473 544 35,000  Level FlightAware
02:27PM 41.5880 -79.6810 78° East 472 543 35,000  Level FlightAware
02:28PM 41.6090 -79.5550 77° East 473 544 35,000  Level FlightAware
02:29PM 41.6280 -79.4330 78° East 474 545 35,000  Level FlightAware
02:30PM 41.6510 -79.2870 78° East 475 547 35,000  Level FlightAware
02:30PM 41.6660 -79.1880 79° East 473 544 35,000  Level FlightAware
02:31PM 41.6860 -79.0600 78° East 471 542 35,000  Level FlightAware
02:32PM 41.7050 -78.9330 79° East 472 543 35,000  Level FlightAware
02:32PM 41.7220 -78.8200 79° East 475 547 35,000  Level FlightAware
02:33PM 41.7420 -78.6880 78° East 476 548 35,000  Level FlightAware
02:34PM 41.7600 -78.5710 78° East 477 549 35,000  Level FlightAware
02:34PM 41.7770 -78.4570 79° East 478 550 35,000  Level FlightAware
02:35PM 41.7960 -78.3280 79° East 478 550 35,000  Level FlightAware
02:36PM 41.8130 -78.2100 79° East 479 551 35,000  Level FlightAware
02:37PM 41.8300 -78.0960 79° East 480 552 35,000  Level FlightAware
02:37PM 41.8420 -77.9860 82° East 480 552 35,000  Level FlightAware
02:38PM 41.8420 -77.8560 90° East 477 549 35,000  Level FlightAware
02:39PM 41.8300 -77.7410 98° East 474 545 35,000  Level FlightAware
02:39PM 41.8030 -77.6190 106° East 469 540 35,000  Level FlightAware
02:40PM 41.7730 -77.5060 110° East 468 539 35,000  Level FlightAware
02:40PM 41.7520 -77.4260 109° East 468 539 35,000  Level FlightAware
02:41PM 41.7240 -77.3200 109° East 466 536 35,000  Level FlightAware
02:42PM 41.6940 -77.2100 110° East 465 535 35,000  Level FlightAware
02:43PM 41.6600 -77.0850 110° East 466 536 35,000  Level FlightAware
02:43PM 41.6280 -76.9630 109° East 466 536 35,000  Level FlightAware
02:44PM 41.6138 -76.9124 111° Southeast 467 537 35,000  Level FlightAware ADS-B
02:44PM 41.5872 -76.8144 110° East 468 539 35,000  Level FlightAware ADS-B
02:45PM 41.5670 -76.7400 110° East 466 536 35,000  Level FlightAware
02:45PM 41.5568 -76.7039 111° Southeast 466 536 35,000  Level FlightAware ADS-B
02:45PM 41.5337 -76.6194 110° East 466 536 35,000  Level FlightAware ADS-B
02:46PM 41.5116 -76.5390 110° East 466 536 35,000  Level FlightAware ADS-B
02:46PM 41.4879 -76.4537 110° East 465 535 35,000 -240 Level FlightAware ADS-B
02:47PM 41.4654 -76.3730 110° East 465 535 34,800 -720 Descending FlightAware ADS-B
02:47PM 41.4426 -76.2909 110° East 467 537 34,300 -1,020 Descending FlightAware ADS-B
02:48PM 41.4185 -76.2051 111° Southeast 476 548 33,800 -1,020 Descending FlightAware ADS-B
02:48PM 41.3953 -76.1225 111° Southeast 476 548 33,300 -1,020 Descending FlightAware ADS-B
02:49PM 41.3719 -76.0391 110° East 476 548 32,800 -1,620 Descending FlightAware ADS-B
02:49PM 41.3450 -75.9435 111° Southeast 478 550 31,600 -2,220 Descending FlightAware ADS-B
02:50PM 41.3216 -75.8606 111° Southeast 476 548 30,400 -2,280 Descending FlightAware ADS-B
02:51PM 41.2983 -75.7787 111° Southeast 473 544 29,300 -2,220 Descending FlightAware ADS-B
02:51PM 41.2751 -75.6976 111° Southeast 469 540 28,200 -2,160 Descending FlightAware ADS-B
02:51PM 41.2673 -75.6728 113° Southeast 466 536 27,900 -2,100 Descending FlightAware ADS-B
02:52PM 41.2403 -75.5925 114° Southeast 462 532 26,800 -2,280 Descending FlightAware ADS-B
02:52PM 41.2143 -75.5144 114° Southeast 458 527 25,600 -2,280 Descending FlightAware ADS-B
02:53PM 41.1883 -75.4366 114° Southeast 453 521 24,500 -2,220 Descending FlightAware ADS-B
02:53PM 41.1630 -75.3613 114° Southeast 449 517 23,400 -1,500 Descending FlightAware ADS-B
02:54PM 41.1376 -75.2860 114° Southeast 431 496 23,000 -420 Descending FlightAware ADS-B
02:54PM 41.1134 -75.2143 114° Southeast 422 486 23,000 -420 Level FlightAware ADS-B
02:55PM 41.0885 -75.1414 114° Southeast 422 486 22,600 -840 Descending FlightAware ADS-B
02:55PM 41.0644 -75.0699 114° Southeast 419 482 22,200 -900 Descending FlightAware ADS-B
02:56PM 41.0404 -74.9991 114° Southeast 414 476 21,700 -960 Descending FlightAware ADS-B
02:56PM 41.0193 -74.9370 114° Southeast 409 471 21,300 -960 Descending FlightAware ADS-B
02:57PM 41.0029 -74.8784 110° East 407 468 20,900 -1,080 Descending FlightAware ADS-B
02:57PM 40.9950 -74.8411 106° East 406 467 20,600 -1,020 Descending FlightAware ADS-B
02:57PM 40.9892 -74.8055 102° East 405 466 20,400 -900 Descending FlightAware ADS-B
02:57PM 40.9871 -74.7883 99° East 405 466 20,300 -1,020 Descending FlightAware ADS-B
02:58PM 40.9810 -74.7294 98° East 405 466 19,900 -1,440 Descending FlightAware ADS-B
02:58PM 40.9759 -74.6968 102° East 406 467 19,400 -1,260 Descending FlightAware ADS-B
02:58PM 40.9593 -74.6248 107° East 405 466 19,000 -780 Descending FlightAware ADS-B
02:58PM 40.9590 -74.6232 104° East 405 466 19,000  Level FlightAware ADS-B
02:59PM 40.9421 -74.5496 107° East 403 464 19,000  Level FlightAware ADS-B
02:59PM 40.9383 -74.5331 107° East 404 465 19,000  Level FlightAware ADS-B
02:59PM 40.9256 -74.4776 107° East 400 460 19,000  Level FlightAware ADS-B
03:00PM 40.9226 -74.4645 107° East 399 459 19,000  Level FlightAware ADS-B
03:00PM 40.9094 -74.4071 107° East 399 459 19,000  Level FlightAware ADS-B
03:00PM 40.8926 -74.3346 107° East 399 459 19,000  Level FlightAware ADS-B
03:01PM 40.8762 -74.2635 107° East 399 459 19,000  Level FlightAware ADS-B
03:01PM 40.8606 -74.1964 107° East 368 423 19,000 -300 Level FlightAware ADS-B
03:02PM 40.8462 -74.1339 107° East 347 399 18,700 -660 Descending FlightAware ADS-B
03:02PM 40.8430 -74.1207 108° East 346 398 18,600 -1,500 Descending FlightAware ADS-B
03:02PM 40.8314 -74.0712 107° East 341 392 17,900 -1,560 Descending FlightAware ADS-B
03:03PM 40.8287 -74.0594 107° East 340 391 17,800 -1,560 Descending FlightAware ADS-B
03:03PM 40.8168 -74.0090 107° East 337 388 17,100 -1,560 Descending FlightAware ADS-B
03:03PM 40.8141 -73.9974 107° East 337 388 17,000 -1,620 Descending FlightAware ADS-B
03:03PM 40.8029 -73.9500 107° East 337 388 16,300 -1,440 Descending FlightAware ADS-B
03:04PM 40.7887 -73.8894 107° East 332 382 15,700 -720 Descending FlightAware ADS-B
03:04PM 40.7776 -73.8525 112° Southeast 333 383 15,700  Level FlightAware ADS-B
03:04PM 40.7709 -73.8356 118° Southeast 332 382 15,700  Level FlightAware ADS-B
03:05PM 40.7592 -73.8065 118° Southeast 326 375 15,700 -1,320 Level FlightAware ADS-B
03:05PM 40.7435 -73.7606 114° Southeast 333 383 14,800 -2,220 Descending FlightAware ADS-B
03:05PM 40.7375 -73.7469 120° Southeast 331 381 14,500 -1,920 Descending FlightAware ADS-B
03:06PM 40.7264 -73.7314 133° Southeast 325 374 14,200 -1,620 Descending FlightAware ADS-B
03:06PM 40.7002 -73.7147 154° Southeast 314 361 13,700 -1,500 Descending FlightAware ADS-B
03:06PM 40.6507 -73.6952 163° South 302 348 12,800 -2,340 Descending FlightAware ADS-B
03:07PM 40.6055 -73.6773 163° South 301 346 11,000 -3,000 Descending FlightAware ADS-B
03:07PM 40.5759 -73.6657 163° South 296 341 10,000 -2,640 Descending FlightAware ADS-B
03:08PM 40.5545 -73.6570 163° South 289 333 9,300 -2,760 Descending FlightAware ADS-B
03:08PM 40.5346 -73.6491 163° South 286 329 8,500 -2,940 Descending FlightAware ADS-B
03:08PM 40.5124 -73.6406 164° South 283 326 7,700 -2,760 Descending FlightAware ADS-B
03:08PM 40.5065 -73.6389 168° South 280 322 7,500 -3,300 Descending FlightAware ADS-B
03:08PM 40.4980 -73.6378 174° South 277 319 7,100 -3,360 Descending FlightAware ADS-B
03:09PM 40.4830 -73.6412 190° South 276 318 6,500 -3,180 Descending FlightAware ADS-B
03:09PM 40.4753 -73.6459 205° Southwest 276 318 6,100 -3,000 Descending FlightAware ADS-B
03:09PM 40.4577 -73.6580 208° Southwest 276 318 5,400 -2,760 Descending FlightAware ADS-B
03:09PM 40.4489 -73.6643 209° Southwest 274 315 5,000 -3,000 Descending FlightAware ADS-B
03:09PM 40.4431 -73.6699 216° Southwest 273 314 4,700 -1,740 Descending FlightAware ADS-B
03:10PM 40.4266 -73.7298 250° West 270 311 3,700 -1,020 Descending FlightAware ADS-B
03:10PM 40.4224 -73.7625 260° West 260 299 3,700  Level FlightAware ADS-B
03:10PM 40.4193 -73.7867 260° West 261 300 3,700  Level FlightAware ADS-B
03:11PM 40.4162 -73.8112 261° West 260 299 3,700  Level FlightAware ADS-B
03:11PM 40.4128 -73.8381 261° West 256 295 3,700  Level FlightAware ADS-B
03:11PM 40.4098 -73.8623 261° West 240 276 3,700  Level FlightAware ADS-B
03:12PM 40.4072 -73.8849 261° West 227 261 3,700  Level FlightAware ADS-B
03:12PM 40.4045 -73.9070 261° West 223 257 3,700  Level FlightAware ADS-B
03:12PM 40.4024 -73.9296 263° West 223 257 3,700  Level FlightAware ADS-B
03:12PM 40.4030 -73.9365 277° West 226 260 3,700  Level FlightAware ADS-B
03:12PM 40.4045 -73.9434 286° West 230 265 3,700  Level FlightAware ADS-B
03:13PM 40.4105 -73.9645 290° West 231 266 3,700 -240 Level FlightAware ADS-B
03:13PM 40.4172 -73.9835 295° West 231 266 3,600 -660 Descending FlightAware ADS-B
03:13PM 40.4265 -73.9961 314° West 235 270 3,400 -1,020 Descending FlightAware ADS-B
03:13PM 40.4311 -73.9999 328° Northwest 237 273 3,300 -1,200 Descending FlightAware ADS-B
03:13PM 40.4370 -74.0031 338° Northwest 239 275 3,200 -1,440 Descending FlightAware ADS-B
03:13PM 40.4484 -74.0052 352° North 242 278 2,900 -600 Descending FlightAware ADS-B
03:14PM 40.4910 -73.9840 21° North 243 280 2,700 -180 Descending FlightAware
03:15PM 40.5210 -73.9670 23° Northeast 219 252 2,700  Level FlightAware
03:15PM 40.5440 -73.9500 29° Northeast 191 220 2,700 -480 Level FlightAware
03:15PM 40.5620 -73.9350 32° Northeast 190 219 2,300 -960 Descending FlightAware
03:16PM 40.5870 -73.9150 31° Northeast 189 217 1,800 -1,080 Descending FlightAware
03:16PM 40.6060 -73.9000 31° Northeast 189 217 1,300 -840 Descending FlightAware
03:17PM 40.6260 -73.8840 31° Northeast 177 204 1,100 -300 Descending FlightAware
03:17PM 40.6480 -73.8670 30° Northeast 168 193 1,000 -300 Descending FlightAware
03:18PM 40.6610 -73.8480 48° Northeast 144 166 800 -540 Descending FlightAware
03:18PM 40.6670 -73.8260 70° East 138 159 500 -660 Descending FlightAware
03:19PM 40.6640 -73.8040 100° East 131 151 -1,080 Descending FlightAware
03:19PM 40.6580 -73.7900 119° Southeast 132 152  Level FlightAware
03:20PM 40.6490 -73.7720 123° Southeast 39 45  Level FlightAware
03:20PM 40.6480 -73.7710 143° Southeast 30 35  Level FlightAware
03:20PM 40.6480 -73.7730 270° West 26 30  Level FlightAware
03:21PM 40.6480 -73.7740 270° West 25 29  Level FlightAware
03:21PM 40.6470 -73.7750 217° Southwest 15 17  Level FlightAware
03:22PM 40.6460 -73.7750 180° South 10 12  Level FlightAware
03:26PM 40.6398 -73.7789 241° Southwest  Level Estimated
03:27PM 40.6398 -73.7789 215° Southwest  Level Estimated
03:28PM 40.6398 -73.7789 32° Northeast  Level Estimated